sensor_id;sensor_type;location;lat;lon;timestamp;temperature;humidity
37518;DHT22;23366;52.498;13.446;2023-04-07T00:00:14;5.80;83.10
37518;DHT22;23366;52.498;13.446;2023-04-07T00:02:40;5.90;83.20
37518;DHT22;23366;52.498;13.446;2023-04-07T00:05:07;5.80;83.20
37518;DHT22;23366;52.498;13.446;2023-04-07T00:07:32;5.80;83.30
37518;DHT22;23366;52.498;13.446;2023-04-07T00:09:58;5.80;83.50
37518;DHT22;23366;52.498;13.446;2023-04-07T00:12:24;5.80;83.10
37518;DHT22;23366;52.498;13.446;2023-04-07T00:14:50;5.80;82.80
37518;DHT22;23366;52.498;13.446;2023-04-07T00:17:16;5.80;82.50
37518;DHT22;23366;52.498;13.446;2023-04-07T00:19:41;5.70;83.30
37518;DHT22;23366;52.498;13.446;2023-04-07T00:22:08;5.70;82.30
37518;DHT22;23366;52.498;13.446;2023-04-07T00:24:33;5.70;82.40
37518;DHT22;23366;52.498;13.446;2023-04-07T00:27:00;5.70;82.00
37518;DHT22;23366;52.498;13.446;2023-04-07T00:29:29;5.70;81.50
37518;DHT22;23366;52.498;13.446;2023-04-07T00:31:55;5.70;80.60
37518;DHT22;23366;52.498;13.446;2023-04-07T00:34:20;5.70;80.00
37518;DHT22;23366;52.498;13.446;2023-04-07T00:36:46;5.70;80.30
37518;DHT22;23366;52.498;13.446;2023-04-07T00:39:19;5.70;80.10
37518;DHT22;23366;52.498;13.446;2023-04-07T00:41:46;5.70;80.20
37518;DHT22;23366;52.498;13.446;2023-04-07T00:44:12;5.60;79.80
37518;DHT22;23366;52.498;13.446;2023-04-07T00:46:38;5.60;79.90
37518;DHT22;23366;52.498;13.446;2023-04-07T00:49:05;5.60;80.30
37518;DHT22;23366;52.498;13.446;2023-04-07T00:51:30;5.60;79.50
37518;DHT22;23366;52.498;13.446;2023-04-07T00:53:56;5.60;79.70
37518;DHT22;23366;52.498;13.446;2023-04-07T00:56:23;5.60;79.70
37518;DHT22;23366;52.498;13.446;2023-04-07T00:58:48;5.60;79.70
37518;DHT22;23366;52.498;13.446;2023-04-07T01:01:28;5.60;79.20
37518;DHT22;23366;52.498;13.446;2023-04-07T01:04:08;5.60;79.30
37518;DHT22;23366;52.498;13.446;2023-04-07T01:06:39;5.50;79.50
37518;DHT22;23366;52.498;13.446;2023-04-07T01:09:17;5.60;79.80
37518;DHT22;23366;52.498;13.446;2023-04-07T01:12:06;5.50;80.10
37518;DHT22;23366;52.498;13.446;2023-04-07T01:14:39;5.50;79.90
37518;DHT22;23366;52.498;13.446;2023-04-07T01:17:06;5.50;79.50
37518;DHT22;23366;52.498;13.446;2023-04-07T01:20:00;5.50;79.90
37518;DHT22;23366;52.498;13.446;2023-04-07T01:22:55;5.50;79.80
37518;DHT22;23366;52.498;13.446;2023-04-07T01:29:09;5.50;79.70
37518;DHT22;23366;52.498;13.446;2023-04-07T01:31:39;5.40;79.60
37518;DHT22;23366;52.498;13.446;2023-04-07T01:34:06;5.40;79.90
37518;DHT22;23366;52.498;13.446;2023-04-07T01:36:34;5.40;80.00
37518;DHT22;23366;52.498;13.446;2023-04-07T01:39:00;5.40;80.20
37518;DHT22;23366;52.498;13.446;2023-04-07T01:41:26;5.40;80.40
37518;DHT22;23366;52.498;13.446;2023-04-07T01:43:53;5.30;80.50
37518;DHT22;23366;52.498;13.446;2023-04-07T01:46:20;5.30;80.40
37518;DHT22;23366;52.498;13.446;2023-04-07T01:48:46;5.30;81.40
37518;DHT22;23366;52.498;13.446;2023-04-07T01:51:13;5.30;80.70
37518;DHT22;23366;52.498;13.446;2023-04-07T01:53:44;5.20;81.30
37518;DHT22;23366;52.498;13.446;2023-04-07T01:56:10;5.20;81.40
37518;DHT22;23366;52.498;13.446;2023-04-07T01:58:36;5.20;81.60
37518;DHT22;23366;52.498;13.446;2023-04-07T02:01:01;5.20;81.80
37518;DHT22;23366;52.498;13.446;2023-04-07T02:03:30;5.20;82.00
37518;DHT22;23366;52.498;13.446;2023-04-07T02:06:05;5.10;81.80
37518;DHT22;23366;52.498;13.446;2023-04-07T02:08:31;5.10;82.10
37518;DHT22;23366;52.498;13.446;2023-04-07T02:10:58;5.10;82.30
37518;DHT22;23366;52.498;13.446;2023-04-07T02:13:26;5.10;82.60
37518;DHT22;23366;52.498;13.446;2023-04-07T02:15:53;5.00;82.90
37518;DHT22;23366;52.498;13.446;2023-04-07T02:18:21;5.00;83.20
37518;DHT22;23366;52.498;13.446;2023-04-07T02:20:49;5.00;83.40
37518;DHT22;23366;52.498;13.446;2023-04-07T02:23:16;5.00;83.60
37518;DHT22;23366;52.498;13.446;2023-04-07T02:25:42;5.00;84.30
37518;DHT22;23366;52.498;13.446;2023-04-07T02:28:07;5.00;84.30
37518;DHT22;23366;52.498;13.446;2023-04-07T02:30:33;5.00;84.40
37518;DHT22;23366;52.498;13.446;2023-04-07T02:32:59;5.00;84.40
37518;DHT22;23366;52.498;13.446;2023-04-07T02:35:25;5.00;84.60
37518;DHT22;23366;52.498;13.446;2023-04-07T02:37:51;5.00;84.80
37518;DHT22;23366;52.498;13.446;2023-04-07T02:40:16;5.10;85.00
37518;DHT22;23366;52.498;13.446;2023-04-07T02:42:42;5.10;84.60
37518;DHT22;23366;52.498;13.446;2023-04-07T02:45:09;5.00;84.90
37518;DHT22;23366;52.498;13.446;2023-04-07T02:47:35;5.00;85.10
37518;DHT22;23366;52.498;13.446;2023-04-07T02:50:01;5.10;85.70
37518;DHT22;23366;52.498;13.446;2023-04-07T02:52:27;5.10;85.70
37518;DHT22;23366;52.498;13.446;2023-04-07T02:54:53;5.10;86.10
37518;DHT22;23366;52.498;13.446;2023-04-07T02:57:18;5.10;85.70
37518;DHT22;23366;52.498;13.446;2023-04-07T02:59:44;5.10;85.90
37518;DHT22;23366;52.498;13.446;2023-04-07T03:02:09;5.10;86.00
37518;DHT22;23366;52.498;13.446;2023-04-07T03:04:35;5.10;86.00
37518;DHT22;23366;52.498;13.446;2023-04-07T03:07:01;5.20;85.70
37518;DHT22;23366;52.498;13.446;2023-04-07T03:09:26;5.10;85.70
37518;DHT22;23366;52.498;13.446;2023-04-07T03:11:52;5.10;86.10
37518;DHT22;23366;52.498;13.446;2023-04-07T03:14:18;5.10;85.80
37518;DHT22;23366;52.498;13.446;2023-04-07T03:16:43;5.20;85.70
37518;DHT22;23366;52.498;13.446;2023-04-07T03:19:09;5.20;85.50
37518;DHT22;23366;52.498;13.446;2023-04-07T03:21:36;5.20;85.60
37518;DHT22;23366;52.498;13.446;2023-04-07T03:24:02;5.20;86.00
37518;DHT22;23366;52.498;13.446;2023-04-07T03:26:27;5.20;85.90
37518;DHT22;23366;52.498;13.446;2023-04-07T03:28:53;5.20;85.60
37518;DHT22;23366;52.498;13.446;2023-04-07T03:31:18;5.20;85.90
37518;DHT22;23366;52.498;13.446;2023-04-07T03:33:44;5.20;86.00
37518;DHT22;23366;52.498;13.446;2023-04-07T03:36:09;5.20;86.10
37518;DHT22;23366;52.498;13.446;2023-04-07T03:38:35;5.30;85.80
37518;DHT22;23366;52.498;13.446;2023-04-07T03:41:01;5.20;85.70
37518;DHT22;23366;52.498;13.446;2023-04-07T03:43:26;5.20;87.10
37518;DHT22;23366;52.498;13.446;2023-04-07T03:45:52;5.20;86.00
37518;DHT22;23366;52.498;13.446;2023-04-07T03:48:18;5.20;87.20
37518;DHT22;23366;52.498;13.446;2023-04-07T03:50:44;5.20;86.60
37518;DHT22;23366;52.498;13.446;2023-04-07T03:53:10;5.20;87.50
37518;DHT22;23366;52.498;13.446;2023-04-07T03:55:38;5.20;87.50
37518;DHT22;23366;52.498;13.446;2023-04-07T03:58:04;5.20;87.40
37518;DHT22;23366;52.498;13.446;2023-04-07T04:00:30;5.20;87.90
37518;DHT22;23366;52.498;13.446;2023-04-07T04:02:57;5.20;87.60
37518;DHT22;23366;52.498;13.446;2023-04-07T04:05:23;5.20;89.00
37518;DHT22;23366;52.498;13.446;2023-04-07T04:07:48;5.20;88.00
37518;DHT22;23366;52.498;13.446;2023-04-07T04:10:15;5.20;88.60
37518;DHT22;23366;52.498;13.446;2023-04-07T04:12:41;5.20;87.80
37518;DHT22;23366;52.498;13.446;2023-04-07T04:15:07;5.20;88.70
37518;DHT22;23366;52.498;13.446;2023-04-07T04:17:33;5.20;88.40
37518;DHT22;23366;52.498;13.446;2023-04-07T04:19:58;5.20;88.30
37518;DHT22;23366;52.498;13.446;2023-04-07T04:22:24;5.20;88.30
37518;DHT22;23366;52.498;13.446;2023-04-07T04:24:50;5.10;88.70
37518;DHT22;23366;52.498;13.446;2023-04-07T04:27:15;5.10;88.90
37518;DHT22;23366;52.498;13.446;2023-04-07T04:29:41;5.00;89.50
37518;DHT22;23366;52.498;13.446;2023-04-07T04:32:06;5.00;89.70
37518;DHT22;23366;52.498;13.446;2023-04-07T04:34:32;5.00;89.80
37518;DHT22;23366;52.498;13.446;2023-04-07T04:36:57;5.00;90.20
37518;DHT22;23366;52.498;13.446;2023-04-07T04:39:22;5.00;90.20
37518;DHT22;23366;52.498;13.446;2023-04-07T04:41:48;5.00;90.20
37518;DHT22;23366;52.498;13.446;2023-04-07T04:44:13;5.10;90.30
37518;DHT22;23366;52.498;13.446;2023-04-07T04:46:39;5.10;90.10
37518;DHT22;23366;52.498;13.446;2023-04-07T04:49:05;5.10;90.00
37518;DHT22;23366;52.498;13.446;2023-04-07T04:51:31;5.20;90.20
37518;DHT22;23366;52.498;13.446;2023-04-07T04:53:56;5.20;90.30
37518;DHT22;23366;52.498;13.446;2023-04-07T04:56:22;5.30;90.10
37518;DHT22;23366;52.498;13.446;2023-04-07T04:58:48;5.40;90.50
37518;DHT22;23366;52.498;13.446;2023-04-07T05:01:13;5.40;90.50
37518;DHT22;23366;52.498;13.446;2023-04-07T05:03:39;5.50;90.60
37518;DHT22;23366;52.498;13.446;2023-04-07T05:06:05;5.60;90.20
37518;DHT22;23366;52.498;13.446;2023-04-07T05:08:31;5.60;88.80
37518;DHT22;23366;52.498;13.446;2023-04-07T05:10:56;5.60;89.70
37518;DHT22;23366;52.498;13.446;2023-04-07T05:13:22;5.70;89.50
37518;DHT22;23366;52.498;13.446;2023-04-07T05:15:49;5.80;88.80
37518;DHT22;23366;52.498;13.446;2023-04-07T05:18:15;5.90;89.10
37518;DHT22;23366;52.498;13.446;2023-04-07T05:20:42;6.10;89.20
37518;DHT22;23366;52.498;13.446;2023-04-07T05:23:08;6.20;87.60
37518;DHT22;23366;52.498;13.446;2023-04-07T05:25:34;6.30;88.00
37518;DHT22;23366;52.498;13.446;2023-04-07T05:27:59;6.40;88.10
37518;DHT22;23366;52.498;13.446;2023-04-07T05:30:25;6.50;86.80
37518;DHT22;23366;52.498;13.446;2023-04-07T05:32:52;6.60;86.80
37518;DHT22;23366;52.498;13.446;2023-04-07T05:35:17;6.70;86.40
37518;DHT22;23366;52.498;13.446;2023-04-07T05:37:43;6.80;85.70
37518;DHT22;23366;52.498;13.446;2023-04-07T05:40:09;6.90;85.80
37518;DHT22;23366;52.498;13.446;2023-04-07T05:42:34;6.90;85.00
37518;DHT22;23366;52.498;13.446;2023-04-07T05:45:00;6.70;85.10
37518;DHT22;23366;52.498;13.446;2023-04-07T05:47:26;6.60;85.50
37518;DHT22;23366;52.498;13.446;2023-04-07T05:49:51;6.70;86.10
37518;DHT22;23366;52.498;13.446;2023-04-07T05:52:17;6.90;85.90
37518;DHT22;23366;52.498;13.446;2023-04-07T05:54:42;7.00;85.80
37518;DHT22;23366;52.498;13.446;2023-04-07T05:57:08;7.10;85.30
37518;DHT22;23366;52.498;13.446;2023-04-07T05:59:34;7.10;84.50
37518;DHT22;23366;52.498;13.446;2023-04-07T06:02:01;7.10;84.70
37518;DHT22;23366;52.498;13.446;2023-04-07T06:04:27;7.10;85.20
37518;DHT22;23366;52.498;13.446;2023-04-07T06:06:52;7.10;84.10
37518;DHT22;23366;52.498;13.446;2023-04-07T06:09:20;7.00;84.40
37518;DHT22;23366;52.498;13.446;2023-04-07T06:11:45;7.10;85.00
37518;DHT22;23366;52.498;13.446;2023-04-07T06:14:12;7.30;85.20
37518;DHT22;23366;52.498;13.446;2023-04-07T06:16:38;7.50;84.70
37518;DHT22;23366;52.498;13.446;2023-04-07T06:19:03;7.40;84.90
37518;DHT22;23366;52.498;13.446;2023-04-07T06:21:29;7.40;85.00
37518;DHT22;23366;52.498;13.446;2023-04-07T06:23:55;7.30;85.00
37518;DHT22;23366;52.498;13.446;2023-04-07T06:26:21;7.20;85.70
37518;DHT22;23366;52.498;13.446;2023-04-07T06:28:47;7.10;86.30
37518;DHT22;23366;52.498;13.446;2023-04-07T06:31:13;7.00;86.80
37518;DHT22;23366;52.498;13.446;2023-04-07T06:33:38;7.00;87.20
37518;DHT22;23366;52.498;13.446;2023-04-07T06:36:04;7.00;87.40
37518;DHT22;23366;52.498;13.446;2023-04-07T06:38:29;7.10;87.40
37518;DHT22;23366;52.498;13.446;2023-04-07T06:40:56;7.00;87.70
37518;DHT22;23366;52.498;13.446;2023-04-07T06:43:21;7.00;87.80
37518;DHT22;23366;52.498;13.446;2023-04-07T06:45:47;7.10;87.80
37518;DHT22;23366;52.498;13.446;2023-04-07T06:48:12;7.30;87.30
37518;DHT22;23366;52.498;13.446;2023-04-07T06:50:38;7.20;87.80
37518;DHT22;23366;52.498;13.446;2023-04-07T06:53:03;7.30;87.80
37518;DHT22;23366;52.498;13.446;2023-04-07T06:55:30;7.40;87.80
37518;DHT22;23366;52.498;13.446;2023-04-07T06:57:55;7.30;87.40
37518;DHT22;23366;52.498;13.446;2023-04-07T07:00:21;7.20;87.50
37518;DHT22;23366;52.498;13.446;2023-04-07T07:02:49;7.10;88.80
37518;DHT22;23366;52.498;13.446;2023-04-07T07:05:15;7.30;88.50
37518;DHT22;23366;52.498;13.446;2023-04-07T07:07:41;7.40;87.70
37518;DHT22;23366;52.498;13.446;2023-04-07T07:10:09;7.50;87.90
37518;DHT22;23366;52.498;13.446;2023-04-07T07:12:35;7.60;86.50
37518;DHT22;23366;52.498;13.446;2023-04-07T07:15:01;7.40;87.40
37518;DHT22;23366;52.498;13.446;2023-04-07T07:17:26;7.30;87.40
37518;DHT22;23366;52.498;13.446;2023-04-07T07:19:52;7.20;88.80
37518;DHT22;23366;52.498;13.446;2023-04-07T07:22:17;7.10;88.40
37518;DHT22;23366;52.498;13.446;2023-04-07T07:24:43;7.00;89.20
37518;DHT22;23366;52.498;13.446;2023-04-07T07:27:08;7.40;89.50
37518;DHT22;23366;52.498;13.446;2023-04-07T07:29:34;7.60;88.20
37518;DHT22;23366;52.498;13.446;2023-04-07T07:31:59;8.20;86.50
37518;DHT22;23366;52.498;13.446;2023-04-07T07:34:25;8.40;84.20
37518;DHT22;23366;52.498;13.446;2023-04-07T07:36:51;8.30;84.30
37518;DHT22;23366;52.498;13.446;2023-04-07T07:39:16;8.40;83.00
37518;DHT22;23366;52.498;13.446;2023-04-07T07:41:42;8.50;81.70
37518;DHT22;23366;52.498;13.446;2023-04-07T07:44:07;8.60;82.00
37518;DHT22;23366;52.498;13.446;2023-04-07T07:46:33;8.50;81.10
37518;DHT22;23366;52.498;13.446;2023-04-07T07:48:58;8.50;81.40
37518;DHT22;23366;52.498;13.446;2023-04-07T07:51:24;8.40;80.80
37518;DHT22;23366;52.498;13.446;2023-04-07T07:53:50;8.40;80.50
37518;DHT22;23366;52.498;13.446;2023-04-07T07:56:15;8.30;79.00
37518;DHT22;23366;52.498;13.446;2023-04-07T07:58:41;8.30;79.80
37518;DHT22;23366;52.498;13.446;2023-04-07T08:01:06;8.20;80.70
37518;DHT22;23366;52.498;13.446;2023-04-07T08:03:32;8.40;81.30
37518;DHT22;23366;52.498;13.446;2023-04-07T08:05:57;8.40;80.70
37518;DHT22;23366;52.498;13.446;2023-04-07T08:08:23;8.50;78.70
37518;DHT22;23366;52.498;13.446;2023-04-07T08:10:50;8.70;77.40
37518;DHT22;23366;52.498;13.446;2023-04-07T08:13:15;9.00;78.50
37518;DHT22;23366;52.498;13.446;2023-04-07T08:15:41;9.20;77.60
37518;DHT22;23366;52.498;13.446;2023-04-07T08:18:06;9.50;75.20
37518;DHT22;23366;52.498;13.446;2023-04-07T08:20:32;9.40;74.60
37518;DHT22;23366;52.498;13.446;2023-04-07T08:22:58;9.60;74.00
37518;DHT22;23366;52.498;13.446;2023-04-07T08:25:24;9.90;73.20
37518;DHT22;23366;52.498;13.446;2023-04-07T08:27:50;9.90;73.40
37518;DHT22;23366;52.498;13.446;2023-04-07T08:30:15;10.00;71.90
37518;DHT22;23366;52.498;13.446;2023-04-07T08:32:42;9.90;72.00
37518;DHT22;23366;52.498;13.446;2023-04-07T08:35:09;10.10;72.10
37518;DHT22;23366;52.498;13.446;2023-04-07T08:37:35;9.80;72.30
37518;DHT22;23366;52.498;13.446;2023-04-07T08:40:01;9.40;72.10
37518;DHT22;23366;52.498;13.446;2023-04-07T08:42:29;9.70;72.20
37518;DHT22;23366;52.498;13.446;2023-04-07T08:44:56;9.80;72.00
37518;DHT22;23366;52.498;13.446;2023-04-07T08:47:24;9.70;71.60
37518;DHT22;23366;52.498;13.446;2023-04-07T08:49:51;9.50;71.90
37518;DHT22;23366;52.498;13.446;2023-04-07T08:52:21;9.40;71.40
37518;DHT22;23366;52.498;13.446;2023-04-07T08:54:48;9.30;71.80
37518;DHT22;23366;52.498;13.446;2023-04-07T08:57:14;9.30;71.60
37518;DHT22;23366;52.498;13.446;2023-04-07T08:59:41;9.30;69.60
37518;DHT22;23366;52.498;13.446;2023-04-07T09:02:09;9.10;68.90
37518;DHT22;23366;52.498;13.446;2023-04-07T09:04:34;8.90;69.60
37518;DHT22;23366;52.498;13.446;2023-04-07T09:07:00;8.90;71.20
37518;DHT22;23366;52.498;13.446;2023-04-07T09:09:26;8.90;70.60
37518;DHT22;23366;52.498;13.446;2023-04-07T09:11:52;8.80;70.30
37518;DHT22;23366;52.498;13.446;2023-04-07T09:14:17;8.70;70.90
37518;DHT22;23366;52.498;13.446;2023-04-07T09:16:45;8.70;71.30
37518;DHT22;23366;52.498;13.446;2023-04-07T09:19:11;8.70;70.30
37518;DHT22;23366;52.498;13.446;2023-04-07T09:21:53;8.60;69.30
37518;DHT22;23366;52.498;13.446;2023-04-07T09:24:26;8.40;69.60
37518;DHT22;23366;52.498;13.446;2023-04-07T09:29:37;7.80;70.20
37518;DHT22;23366;52.498;13.446;2023-04-07T09:32:03;7.80;71.20
37518;DHT22;23366;52.498;13.446;2023-04-07T09:34:32;7.70;71.60
37518;DHT22;23366;52.498;13.446;2023-04-07T09:36:58;7.50;73.50
37518;DHT22;23366;52.498;13.446;2023-04-07T09:39:24;7.50;73.60
37518;DHT22;23366;52.498;13.446;2023-04-07T09:41:50;7.40;74.50
37518;DHT22;23366;52.498;13.446;2023-04-07T09:44:17;7.30;75.20
37518;DHT22;23366;52.498;13.446;2023-04-07T09:46:57;7.30;77.00
37518;DHT22;23366;52.498;13.446;2023-04-07T09:49:24;7.10;76.50
37518;DHT22;23366;52.498;13.446;2023-04-07T09:51:56;7.10;77.60
37518;DHT22;23366;52.498;13.446;2023-04-07T09:57:07;7.20;77.90
37518;DHT22;23366;52.498;13.446;2023-04-07T09:59:33;7.20;77.80
37518;DHT22;23366;52.498;13.446;2023-04-07T10:01:59;7.30;77.60
37518;DHT22;23366;52.498;13.446;2023-04-07T10:04:25;7.40;78.10
37518;DHT22;23366;52.498;13.446;2023-04-07T10:06:55;7.50;76.70
37518;DHT22;23366;52.498;13.446;2023-04-07T10:09:30;7.60;77.50
37518;DHT22;23366;52.498;13.446;2023-04-07T10:11:57;7.70;77.40
37518;DHT22;23366;52.498;13.446;2023-04-07T10:14:29;7.70;76.70
37518;DHT22;23366;52.498;13.446;2023-04-07T10:16:55;7.70;76.30
37518;DHT22;23366;52.498;13.446;2023-04-07T10:19:22;7.60;76.40
37518;DHT22;23366;52.498;13.446;2023-04-07T10:21:50;7.50;76.60
37518;DHT22;23366;52.498;13.446;2023-04-07T10:24:55;7.50;77.50
37518;DHT22;23366;52.498;13.446;2023-04-07T10:27:34;7.50;78.60
37518;DHT22;23366;52.498;13.446;2023-04-07T10:30:02;7.60;79.30
37518;DHT22;23366;52.498;13.446;2023-04-07T10:32:29;7.70;78.00
37518;DHT22;23366;52.498;13.446;2023-04-07T10:34:56;7.80;77.50
37518;DHT22;23366;52.498;13.446;2023-04-07T10:37:23;7.80;78.40
37518;DHT22;23366;52.498;13.446;2023-04-07T10:39:50;8.10;79.00
37518;DHT22;23366;52.498;13.446;2023-04-07T10:45:06;8.30;77.80
37518;DHT22;23366;52.498;13.446;2023-04-07T10:47:32;8.40;78.30
37518;DHT22;23366;52.498;13.446;2023-04-07T10:50:21;8.40;79.10
37518;DHT22;23366;52.498;13.446;2023-04-07T10:52:48;8.70;79.00
37518;DHT22;23366;52.498;13.446;2023-04-07T10:55:32;8.30;80.00
37518;DHT22;23366;52.498;13.446;2023-04-07T11:06:06;7.70;91.70
37518;DHT22;23366;52.498;13.446;2023-04-07T11:08:45;7.50;93.60
37518;DHT22;23366;52.498;13.446;2023-04-07T11:11:13;7.50;95.90
37518;DHT22;23366;52.498;13.446;2023-04-07T11:13:49;7.50;98.20
37518;DHT22;23366;52.498;13.446;2023-04-07T11:16:17;7.50;99.60
37518;DHT22;23366;52.498;13.446;2023-04-07T11:18:43;7.30;99.80
37518;DHT22;23366;52.498;13.446;2023-04-07T11:21:10;7.30;99.90
37518;DHT22;23366;52.498;13.446;2023-04-07T11:23:39;7.20;99.90
37518;DHT22;23366;52.498;13.446;2023-04-07T11:26:05;7.20;99.90
37518;DHT22;23366;52.498;13.446;2023-04-07T11:28:31;7.30;99.90
37518;DHT22;23366;52.498;13.446;2023-04-07T11:30:57;7.40;99.90
37518;DHT22;23366;52.498;13.446;2023-04-07T11:33:29;7.40;99.90
37518;DHT22;23366;52.498;13.446;2023-04-07T11:35:59;7.40;99.90
37518;DHT22;23366;52.498;13.446;2023-04-07T11:38:27;7.20;99.90
37518;DHT22;23366;52.498;13.446;2023-04-07T11:40:54;7.10;99.90
37518;DHT22;23366;52.498;13.446;2023-04-07T11:43:21;7.00;99.90
37518;DHT22;23366;52.498;13.446;2023-04-07T11:46:22;7.10;99.90
37518;DHT22;23366;52.498;13.446;2023-04-07T11:48:48;7.00;99.90
37518;DHT22;23366;52.498;13.446;2023-04-07T11:51:18;7.10;99.90
37518;DHT22;23366;52.498;13.446;2023-04-07T11:53:45;6.90;99.90
37518;DHT22;23366;52.498;13.446;2023-04-07T11:56:15;6.80;99.90
37518;DHT22;23366;52.498;13.446;2023-04-07T11:58:54;6.70;99.90
37518;DHT22;23366;52.498;13.446;2023-04-07T12:01:21;6.80;99.90
37518;DHT22;23366;52.498;13.446;2023-04-07T12:03:59;6.90;99.90
37518;DHT22;23366;52.498;13.446;2023-04-07T12:06:34;6.90;99.90
37518;DHT22;23366;52.498;13.446;2023-04-07T12:09:01;6.90;99.90
37518;DHT22;23366;52.498;13.446;2023-04-07T12:11:27;6.90;99.90
37518;DHT22;23366;52.498;13.446;2023-04-07T12:13:53;7.00;99.90
37518;DHT22;23366;52.498;13.446;2023-04-07T12:16:19;7.00;99.90
37518;DHT22;23366;52.498;13.446;2023-04-07T12:18:45;6.90;99.90
37518;DHT22;23366;52.498;13.446;2023-04-07T12:21:10;6.70;99.90
37518;DHT22;23366;52.498;13.446;2023-04-07T12:23:36;6.70;99.90
37518;DHT22;23366;52.498;13.446;2023-04-07T12:26:01;6.60;99.90
37518;DHT22;23366;52.498;13.446;2023-04-07T12:28:27;6.60;99.90
37518;DHT22;23366;52.498;13.446;2023-04-07T12:30:53;6.60;99.90
37518;DHT22;23366;52.498;13.446;2023-04-07T12:33:19;6.40;99.90
37518;DHT22;23366;52.498;13.446;2023-04-07T12:35:44;6.20;99.90
37518;DHT22;23366;52.498;13.446;2023-04-07T12:38:10;6.20;99.90
37518;DHT22;23366;52.498;13.446;2023-04-07T12:40:36;6.20;99.90
37518;DHT22;23366;52.498;13.446;2023-04-07T12:43:03;6.30;99.90
37518;DHT22;23366;52.498;13.446;2023-04-07T12:45:28;6.40;99.90
37518;DHT22;23366;52.498;13.446;2023-04-07T12:47:55;6.50;99.90
37518;DHT22;23366;52.498;13.446;2023-04-07T12:50:21;6.70;99.90
37518;DHT22;23366;52.498;13.446;2023-04-07T12:52:46;6.70;99.90
37518;DHT22;23366;52.498;13.446;2023-04-07T12:55:12;6.80;99.90
37518;DHT22;23366;52.498;13.446;2023-04-07T12:57:39;6.80;99.90
37518;DHT22;23366;52.498;13.446;2023-04-07T13:00:04;6.70;99.90
37518;DHT22;23366;52.498;13.446;2023-04-07T13:02:30;6.60;99.90
37518;DHT22;23366;52.498;13.446;2023-04-07T13:04:56;6.60;99.90
37518;DHT22;23366;52.498;13.446;2023-04-07T13:07:21;6.70;99.90
37518;DHT22;23366;52.498;13.446;2023-04-07T13:09:47;6.60;99.90
37518;DHT22;23366;52.498;13.446;2023-04-07T13:12:12;6.70;99.90
37518;DHT22;23366;52.498;13.446;2023-04-07T13:14:39;6.70;99.90
37518;DHT22;23366;52.498;13.446;2023-04-07T13:17:06;6.70;99.90
37518;DHT22;23366;52.498;13.446;2023-04-07T13:19:32;6.60;99.90
37518;DHT22;23366;52.498;13.446;2023-04-07T13:21:57;6.50;99.90
37518;DHT22;23366;52.498;13.446;2023-04-07T13:24:23;6.50;99.90
37518;DHT22;23366;52.498;13.446;2023-04-07T13:26:49;6.70;99.90
37518;DHT22;23366;52.498;13.446;2023-04-07T13:29:16;6.60;99.90
37518;DHT22;23366;52.498;13.446;2023-04-07T13:31:45;6.70;99.90
37518;DHT22;23366;52.498;13.446;2023-04-07T13:34:11;6.80;99.90
37518;DHT22;23366;52.498;13.446;2023-04-07T13:36:38;6.80;99.90
37518;DHT22;23366;52.498;13.446;2023-04-07T13:39:03;6.80;99.90
37518;DHT22;23366;52.498;13.446;2023-04-07T13:41:29;6.80;99.90
37518;DHT22;23366;52.498;13.446;2023-04-07T13:43:54;6.70;99.90
37518;DHT22;23366;52.498;13.446;2023-04-07T13:46:20;6.70;99.90
37518;DHT22;23366;52.498;13.446;2023-04-07T13:48:46;6.70;99.90
37518;DHT22;23366;52.498;13.446;2023-04-07T13:51:12;6.70;99.90
37518;DHT22;23366;52.498;13.446;2023-04-07T13:53:37;6.70;99.90
37518;DHT22;23366;52.498;13.446;2023-04-07T13:56:03;6.60;99.90
37518;DHT22;23366;52.498;13.446;2023-04-07T13:58:33;6.50;99.90
37518;DHT22;23366;52.498;13.446;2023-04-07T14:00:58;6.50;99.90
37518;DHT22;23366;52.498;13.446;2023-04-07T14:03:24;6.50;99.90
37518;DHT22;23366;52.498;13.446;2023-04-07T14:05:49;6.50;99.90
37518;DHT22;23366;52.498;13.446;2023-04-07T14:08:15;6.60;99.90
37518;DHT22;23366;52.498;13.446;2023-04-07T14:10:43;6.50;99.90
37518;DHT22;23366;52.498;13.446;2023-04-07T14:13:09;6.50;99.90
37518;DHT22;23366;52.498;13.446;2023-04-07T14:15:35;6.50;99.90
37518;DHT22;23366;52.498;13.446;2023-04-07T14:18:01;6.60;99.90
37518;DHT22;23366;52.498;13.446;2023-04-07T14:20:26;6.70;99.90
37518;DHT22;23366;52.498;13.446;2023-04-07T14:22:52;6.80;99.90
37518;DHT22;23366;52.498;13.446;2023-04-07T14:25:17;6.80;99.90
37518;DHT22;23366;52.498;13.446;2023-04-07T14:27:43;6.70;99.90
37518;DHT22;23366;52.498;13.446;2023-04-07T14:30:09;6.70;99.90
37518;DHT22;23366;52.498;13.446;2023-04-07T14:32:34;6.70;99.90
37518;DHT22;23366;52.498;13.446;2023-04-07T14:35:00;6.60;99.90
37518;DHT22;23366;52.498;13.446;2023-04-07T14:37:27;6.70;99.90
37518;DHT22;23366;52.498;13.446;2023-04-07T14:39:52;6.70;99.90
37518;DHT22;23366;52.498;13.446;2023-04-07T14:42:19;6.70;99.90
37518;DHT22;23366;52.498;13.446;2023-04-07T14:44:46;6.50;99.90
37518;DHT22;23366;52.498;13.446;2023-04-07T14:47:12;6.50;99.90
37518;DHT22;23366;52.498;13.446;2023-04-07T14:49:37;6.50;99.90
37518;DHT22;23366;52.498;13.446;2023-04-07T14:52:03;6.50;99.90
37518;DHT22;23366;52.498;13.446;2023-04-07T14:54:29;6.50;99.90
37518;DHT22;23366;52.498;13.446;2023-04-07T14:56:54;6.60;99.90
37518;DHT22;23366;52.498;13.446;2023-04-07T14:59:20;6.60;99.90
37518;DHT22;23366;52.498;13.446;2023-04-07T15:01:45;6.70;99.90
37518;DHT22;23366;52.498;13.446;2023-04-07T15:04:11;6.70;99.90
37518;DHT22;23366;52.498;13.446;2023-04-07T15:06:40;6.70;99.90
37518;DHT22;23366;52.498;13.446;2023-04-07T15:09:07;6.70;99.90
37518;DHT22;23366;52.498;13.446;2023-04-07T15:11:32;6.70;99.90
37518;DHT22;23366;52.498;13.446;2023-04-07T15:13:58;6.70;99.90
37518;DHT22;23366;52.498;13.446;2023-04-07T15:16:25;6.70;99.90
37518;DHT22;23366;52.498;13.446;2023-04-07T15:18:51;6.60;99.90
37518;DHT22;23366;52.498;13.446;2023-04-07T15:21:16;6.50;99.90
37518;DHT22;23366;52.498;13.446;2023-04-07T15:23:42;6.50;99.90
37518;DHT22;23366;52.498;13.446;2023-04-07T15:26:09;6.50;99.90
37518;DHT22;23366;52.498;13.446;2023-04-07T15:28:34;6.50;99.90
37518;DHT22;23366;52.498;13.446;2023-04-07T15:31:00;6.50;99.90
37518;DHT22;23366;52.498;13.446;2023-04-07T15:33:26;6.50;99.90
37518;DHT22;23366;52.498;13.446;2023-04-07T15:35:52;6.50;99.90
37518;DHT22;23366;52.498;13.446;2023-04-07T15:38:17;6.50;99.90
37518;DHT22;23366;52.498;13.446;2023-04-07T15:40:43;6.50;99.90
37518;DHT22;23366;52.498;13.446;2023-04-07T15:43:08;6.40;99.90
37518;DHT22;23366;52.498;13.446;2023-04-07T15:45:42;6.40;99.90
37518;DHT22;23366;52.498;13.446;2023-04-07T15:48:09;6.40;99.90